Hovedside
METAR-TAF:

METAR-TAF

Lufthavner :

Andøya lufthavn. Andenes

Andøya, Norge

breddegrad: 69-18N, lengdegrad: 016-09E, høyde over havet: 1 m

Gjeldene værobservasjon

Denne rapporten ble laget for 17 minutter siden, klokken 20:50 UTC
Vind 11 kt fra Vest, skiftende mellom Sørvest og Vest-nordvest
Temperatur 7°C
Luftfuktighet 87%
Trykk 1019 hPa
Sikt 10 km eller mer
Brutte skyer i en høyde av 1100 ft

METAR: ENAN 232050Z 26011KT 230V290 9999 BKN011 07/05 Q1019

Tid: 23:07 (21:07 UTC)

Varsel

Varsel gyldig fra 23. klokken 18 UTC til 24. klokken 18 UTC
Vind 20 kt fra Vest-sørvest
Sikt 10 km eller mer
Få skyer i en høyde av 800 ft
Brutte skyer i en høyde av 1500 ft
Midlertidig
fra 23. klokken 18 UTC til 24. klokken 03 UTC
Sikt: 2500 m
Brutte skyer i en høyde av 400 ft
lett duskregn, regn, dis
Blir
fra 23. klokken 19 UTC til 23. klokken 21 UTC
Vind 8 kt fra Sør

TAF: ENAN 2318/2418 24020KT 9999 FEW008 BKN015 TEMPO 2318/2403 2500 -DZRA BR BKN004 BECMG 2319/2321 18008KT

Værobservasjoner og værvarsel for over 4000 flyplasser (METAR- og TAF-rapporter).

Tilgjengelige stasjoner er representert av de røde og gule prikkene på kartet.

Hold musepekeren over prikken for å se navnet på stasjonen.

Klikk så for å se værobservasjoner og -varsler.

For å forandre kartet kan du klikke på den grønne knappen med svart kryss for å zoome inn, på den grønne knappen med strek for å zoome ut, eller på de grønne pilene for å se tilstøtende kart.


METAR-TAF: